sensor_id;sensor_type;location;lat;lon;timestamp;pressure;altitude;pressure_sealevel;temperature;humidity
53960;BME280;39866;48.638;-2.020;2023-03-23T00:01:45;100090.00;;;17.32;59.53
53960;BME280;39866;48.638;-2.020;2023-03-23T00:04:10;100085.59;;;17.31;59.96
53960;BME280;39866;48.638;-2.020;2023-03-23T00:06:37;100087.97;;;17.36;59.56
53960;BME280;39866;48.638;-2.020;2023-03-23T00:09:02;100099.81;;;17.46;59.54
53960;BME280;39866;48.638;-2.020;2023-03-23T00:11:30;100097.75;;;17.37;59.53
53960;BME280;39866;48.638;-2.020;2023-03-23T00:13:57;100116.44;;;17.52;59.35
53960;BME280;39866;48.638;-2.020;2023-03-23T00:16:27;100107.19;;;17.29;60.09
53960;BME280;39866;48.638;-2.020;2023-03-23T00:18:59;100101.94;;;17.28;59.87
53960;BME280;39866;48.638;-2.020;2023-03-23T00:21:28;100111.38;;;17.48;59.34
53960;BME280;39866;48.638;-2.020;2023-03-23T00:24:15;100091.88;;;17.44;59.32
53960;BME280;39866;48.638;-2.020;2023-03-23T00:26:48;100096.06;;;17.48;59.39
53960;BME280;39866;48.638;-2.020;2023-03-23T00:29:20;100095.28;;;17.46;59.09
53960;BME280;39866;48.638;-2.020;2023-03-23T00:31:49;100103.41;;;17.59;58.83
53960;BME280;39866;48.638;-2.020;2023-03-23T00:34:16;100104.03;;;17.50;59.16
53960;BME280;39866;48.638;-2.020;2023-03-23T00:36:47;100094.34;;;17.47;58.74
53960;BME280;39866;48.638;-2.020;2023-03-23T00:39:13;100091.44;;;17.50;58.72
53960;BME280;39866;48.638;-2.020;2023-03-23T00:41:42;100099.84;;;17.58;58.66
53960;BME280;39866;48.638;-2.020;2023-03-23T00:44:07;100106.88;;;17.74;58.32
53960;BME280;39866;48.638;-2.020;2023-03-23T00:46:34;100100.66;;;17.73;58.09
53960;BME280;39866;48.638;-2.020;2023-03-23T00:48:59;100097.00;;;17.74;58.06
53960;BME280;39866;48.638;-2.020;2023-03-23T00:51:24;100090.72;;;17.61;58.48
53960;BME280;39866;48.638;-2.020;2023-03-23T00:53:50;100098.59;;;17.64;58.55
53960;BME280;39866;48.638;-2.020;2023-03-23T00:56:16;100098.94;;;17.72;58.46
53960;BME280;39866;48.638;-2.020;2023-03-23T00:58:42;100085.69;;;17.69;58.25
53960;BME280;39866;48.638;-2.020;2023-03-23T01:01:08;100091.94;;;17.43;58.52
53960;BME280;39866;48.638;-2.020;2023-03-23T01:03:34;100100.31;;;17.65;58.38
53960;BME280;39866;48.638;-2.020;2023-03-23T01:06:10;100096.06;;;17.48;58.72
53960;BME280;39866;48.638;-2.020;2023-03-23T01:08:39;100091.00;;;17.44;58.18
53960;BME280;39866;48.638;-2.020;2023-03-23T01:11:15;100085.31;;;17.48;58.03
53960;BME280;39866;48.638;-2.020;2023-03-23T01:13:42;100091.72;;;17.33;58.18
53960;BME280;39866;48.638;-2.020;2023-03-23T01:16:08;100075.28;;;17.50;58.42
53960;BME280;39866;48.638;-2.020;2023-03-23T01:18:33;100079.50;;;17.67;57.72
53960;BME280;39866;48.638;-2.020;2023-03-23T01:21:06;100079.72;;;17.51;58.37
53960;BME280;39866;48.638;-2.020;2023-03-23T01:23:33;100083.28;;;17.52;58.33
53960;BME280;39866;48.638;-2.020;2023-03-23T01:26:35;100093.53;;;17.60;57.83
53960;BME280;39866;48.638;-2.020;2023-03-23T01:28:54;100078.63;;;17.54;57.90
53960;BME280;39866;48.638;-2.020;2023-03-23T01:31:21;100080.28;;;17.69;57.78
53960;BME280;39866;48.638;-2.020;2023-03-23T01:33:47;100086.19;;;17.62;58.11
53960;BME280;39866;48.638;-2.020;2023-03-23T01:36:17;100085.31;;;17.48;59.00
53960;BME280;39866;48.638;-2.020;2023-03-23T01:38:44;100100.75;;;17.32;59.77
53960;BME280;39866;48.638;-2.020;2023-03-23T01:41:10;100100.09;;;17.28;60.41
53960;BME280;39866;48.638;-2.020;2023-03-23T01:43:54;100100.50;;;17.22;61.74
53960;BME280;39866;48.638;-2.020;2023-03-23T01:46:20;100096.38;;;16.90;64.05
53960;BME280;39866;48.638;-2.020;2023-03-23T01:48:47;100102.03;;;16.85;64.47
53960;BME280;39866;48.638;-2.020;2023-03-23T01:51:14;100095.63;;;16.73;64.81
53960;BME280;39866;48.638;-2.020;2023-03-23T01:53:52;100091.03;;;16.75;64.88
53960;BME280;39866;48.638;-2.020;2023-03-23T01:56:21;100093.63;;;16.77;64.49
53960;BME280;39866;48.638;-2.020;2023-03-23T01:58:50;100093.84;;;16.74;64.43
53960;BME280;39866;48.638;-2.020;2023-03-23T02:01:16;100096.09;;;16.80;64.37
53960;BME280;39866;48.638;-2.020;2023-03-23T02:03:44;100112.13;;;16.81;64.08
53960;BME280;39866;48.638;-2.020;2023-03-23T02:06:12;100095.63;;;16.88;63.74
53960;BME280;39866;48.638;-2.020;2023-03-23T02:08:38;100098.19;;;16.89;63.97
53960;BME280;39866;48.638;-2.020;2023-03-23T02:11:22;100100.56;;;16.94;63.71
53960;BME280;39866;48.638;-2.020;2023-03-23T02:13:49;100095.13;;;16.81;64.30
53960;BME280;39866;48.638;-2.020;2023-03-23T02:27:08;100078.34;;;16.77;64.50
53960;BME280;39866;48.638;-2.020;2023-03-23T02:32:31;100113.63;;;17.00;64.18
53960;BME280;39866;48.638;-2.020;2023-03-23T02:35:22;100092.78;;;17.03;64.01
53960;BME280;39866;48.638;-2.020;2023-03-23T02:37:52;100098.59;;;17.10;63.71
53960;BME280;39866;48.638;-2.020;2023-03-23T02:40:27;100103.63;;;17.02;64.29
53960;BME280;39866;48.638;-2.020;2023-03-23T02:42:55;100097.66;;;17.11;64.06
53960;BME280;39866;48.638;-2.020;2023-03-23T02:45:23;100093.75;;;17.02;64.03
53960;BME280;39866;48.638;-2.020;2023-03-23T02:47:52;100097.31;;;17.03;63.59
53960;BME280;39866;48.638;-2.020;2023-03-23T02:50:20;100083.59;;;16.93;63.24
53960;BME280;39866;48.638;-2.020;2023-03-23T02:52:48;100068.72;;;16.88;63.07
53960;BME280;39866;48.638;-2.020;2023-03-23T02:55:14;100086.06;;;17.11;62.61
53960;BME280;39866;48.638;-2.020;2023-03-23T02:57:41;100076.53;;;17.05;62.08
53960;BME280;39866;48.638;-2.020;2023-03-23T03:00:11;100080.00;;;17.07;62.19
53960;BME280;39866;48.638;-2.020;2023-03-23T03:02:39;100087.84;;;17.10;62.16
53960;BME280;39866;48.638;-2.020;2023-03-23T03:13:30;100089.97;;;17.19;62.32
53960;BME280;39866;48.638;-2.020;2023-03-23T03:16:14;100085.38;;;17.07;62.47
53960;BME280;39866;48.638;-2.020;2023-03-23T03:18:55;100092.06;;;17.14;62.51
53960;BME280;39866;48.638;-2.020;2023-03-23T03:21:23;100085.47;;;17.05;62.36
53960;BME280;39866;48.638;-2.020;2023-03-23T03:23:54;100089.91;;;17.06;62.31
53960;BME280;39866;48.638;-2.020;2023-03-23T03:26:22;100094.41;;;17.06;62.37
53960;BME280;39866;48.638;-2.020;2023-03-23T03:28:52;100097.00;;;17.07;62.25
53960;BME280;39866;48.638;-2.020;2023-03-23T03:31:21;100093.59;;;17.18;61.91
53960;BME280;39866;48.638;-2.020;2023-03-23T03:33:48;100084.34;;;17.22;61.58
53960;BME280;39866;48.638;-2.020;2023-03-23T03:36:16;100081.41;;;17.13;62.10
53960;BME280;39866;48.638;-2.020;2023-03-23T03:38:44;100084.41;;;17.08;62.55
53960;BME280;39866;48.638;-2.020;2023-03-23T03:41:10;100103.38;;;16.92;63.29
53960;BME280;39866;48.638;-2.020;2023-03-23T03:43:36;100101.59;;;16.78;64.34
53960;BME280;39866;48.638;-2.020;2023-03-23T03:46:02;100098.31;;;16.73;64.75
53960;BME280;39866;48.638;-2.020;2023-03-23T03:48:27;100095.56;;;16.75;64.95
53960;BME280;39866;48.638;-2.020;2023-03-23T03:50:53;100092.47;;;16.67;65.20
53960;BME280;39866;48.638;-2.020;2023-03-23T03:53:22;100098.31;;;16.73;64.92
53960;BME280;39866;48.638;-2.020;2023-03-23T03:55:47;100104.84;;;16.83;64.64
53960;BME280;39866;48.638;-2.020;2023-03-23T03:58:15;100105.69;;;16.84;64.69
53960;BME280;39866;48.638;-2.020;2023-03-23T04:00:40;100118.16;;;16.85;64.59
53960;BME280;39866;48.638;-2.020;2023-03-23T04:03:07;100108.19;;;16.87;64.26
53960;BME280;39866;48.638;-2.020;2023-03-23T04:05:34;100112.03;;;16.83;64.79
53960;BME280;39866;48.638;-2.020;2023-03-23T04:08:02;100097.44;;;16.87;64.57
53960;BME280;39866;48.638;-2.020;2023-03-23T04:10:30;100108.09;;;16.89;64.50
53960;BME280;39866;48.638;-2.020;2023-03-23T04:12:56;100089.63;;;16.97;64.12
53960;BME280;39866;48.638;-2.020;2023-03-23T04:15:21;100091.28;;;16.99;63.83
53960;BME280;39866;48.638;-2.020;2023-03-23T04:17:47;100096.34;;;17.04;63.92
53960;BME280;39866;48.638;-2.020;2023-03-23T04:20:12;100100.34;;;17.11;63.64
53960;BME280;39866;48.638;-2.020;2023-03-23T04:22:46;100101.31;;;17.10;63.54
53960;BME280;39866;48.638;-2.020;2023-03-23T04:25:15;100100.72;;;17.19;63.24
53960;BME280;39866;48.638;-2.020;2023-03-23T04:27:41;100113.50;;;17.16;63.04
53960;BME280;39866;48.638;-2.020;2023-03-23T04:30:12;100116.53;;;17.24;63.03
53960;BME280;39866;48.638;-2.020;2023-03-23T04:32:39;100117.09;;;17.29;63.07
53960;BME280;39866;48.638;-2.020;2023-03-23T04:35:08;100108.28;;;17.27;62.95
53960;BME280;39866;48.638;-2.020;2023-03-23T04:37:34;100114.53;;;17.27;62.56
53960;BME280;39866;48.638;-2.020;2023-03-23T04:40:00;100106.75;;;17.23;62.48
53960;BME280;39866;48.638;-2.020;2023-03-23T04:42:30;100108.53;;;17.37;62.43
53960;BME280;39866;48.638;-2.020;2023-03-23T04:44:59;100098.63;;;17.37;62.30
53960;BME280;39866;48.638;-2.020;2023-03-23T04:47:26;100085.50;;;17.18;62.06
53960;BME280;39866;48.638;-2.020;2023-03-23T04:49:55;100104.31;;;17.32;62.17
53960;BME280;39866;48.638;-2.020;2023-03-23T04:52:21;100090.63;;;17.23;62.10
53960;BME280;39866;48.638;-2.020;2023-03-23T04:54:47;100083.28;;;17.25;61.73
53960;BME280;39866;48.638;-2.020;2023-03-23T04:57:12;100097.53;;;17.27;61.63
53960;BME280;39866;48.638;-2.020;2023-03-23T04:59:38;100104.69;;;17.26;61.56
53960;BME280;39866;48.638;-2.020;2023-03-23T05:02:03;100101.94;;;17.28;61.27
53960;BME280;39866;48.638;-2.020;2023-03-23T05:04:28;100110.75;;;17.30;60.95
53960;BME280;39866;48.638;-2.020;2023-03-23T05:06:54;100121.78;;;17.40;61.11
53960;BME280;39866;48.638;-2.020;2023-03-23T05:09:19;100116.44;;;17.25;61.27
53960;BME280;39866;48.638;-2.020;2023-03-23T05:11:45;100119.91;;;17.27;61.21
53960;BME280;39866;48.638;-2.020;2023-03-23T05:14:11;100135.47;;;17.22;61.19
53960;BME280;39866;48.638;-2.020;2023-03-23T05:16:36;100127.19;;;17.25;60.92
53960;BME280;39866;48.638;-2.020;2023-03-23T05:19:03;100124.13;;;17.31;61.00
53960;BME280;39866;48.638;-2.020;2023-03-23T05:21:30;100122.44;;;17.16;60.98
53960;BME280;39866;48.638;-2.020;2023-03-23T05:23:55;100128.16;;;17.24;61.13
53960;BME280;39866;48.638;-2.020;2023-03-23T05:26:21;100135.31;;;17.11;61.10
53960;BME280;39866;48.638;-2.020;2023-03-23T05:28:49;100136.41;;;17.36;60.84
53960;BME280;39866;48.638;-2.020;2023-03-23T05:31:18;100135.47;;;17.22;61.09
53960;BME280;39866;48.638;-2.020;2023-03-23T05:33:43;100128.53;;;17.32;60.86
53960;BME280;39866;48.638;-2.020;2023-03-23T05:36:10;100128.31;;;17.36;60.70
53960;BME280;39866;48.638;-2.020;2023-03-23T05:38:35;100132.88;;;17.21;60.97
53960;BME280;39866;48.638;-2.020;2023-03-23T05:41:03;100130.19;;;17.21;60.69
53960;BME280;39866;48.638;-2.020;2023-03-23T05:43:29;100132.78;;;17.22;60.96
53960;BME280;39866;48.638;-2.020;2023-03-23T05:45:55;100131.34;;;17.17;61.06
53960;BME280;39866;48.638;-2.020;2023-03-23T05:48:20;100134.72;;;17.20;61.12
53960;BME280;39866;48.638;-2.020;2023-03-23T05:50:45;100131.66;;;17.12;60.94
53960;BME280;39866;48.638;-2.020;2023-03-23T05:53:12;100133.19;;;17.16;60.62
53960;BME280;39866;48.638;-2.020;2023-03-23T05:55:38;100125.88;;;17.18;60.62
53960;BME280;39866;48.638;-2.020;2023-03-23T05:58:03;100130.81;;;17.12;60.79
53960;BME280;39866;48.638;-2.020;2023-03-23T06:00:28;100136.88;;;17.01;60.82
53960;BME280;39866;48.638;-2.020;2023-03-23T06:02:56;100132.53;;;17.13;60.67
53960;BME280;39866;48.638;-2.020;2023-03-23T06:05:22;100127.81;;;17.16;60.34
53960;BME280;39866;48.638;-2.020;2023-03-23T06:07:49;100121.56;;;17.16;60.81
53960;BME280;39866;48.638;-2.020;2023-03-23T06:10:14;100131.78;;;16.96;60.86
53960;BME280;39866;48.638;-2.020;2023-03-23T06:12:40;100123.59;;;17.12;60.63
53960;BME280;39866;48.638;-2.020;2023-03-23T06:15:07;100132.63;;;17.11;60.59
53960;BME280;39866;48.638;-2.020;2023-03-23T06:17:33;100140.53;;;17.00;60.52
53960;BME280;39866;48.638;-2.020;2023-03-23T06:19:59;100165.69;;;16.84;61.04
53960;BME280;39866;48.638;-2.020;2023-03-23T06:22:25;100166.44;;;17.01;60.78
53960;BME280;39866;48.638;-2.020;2023-03-23T06:24:51;100174.16;;;16.93;60.70
53960;BME280;39866;48.638;-2.020;2023-03-23T06:27:17;100171.63;;;17.04;60.90
53960;BME280;39866;48.638;-2.020;2023-03-23T06:29:43;100172.25;;;16.95;60.80
53960;BME280;39866;48.638;-2.020;2023-03-23T06:32:12;100168.47;;;17.12;60.54
53960;BME280;39866;48.638;-2.020;2023-03-23T06:34:38;100161.81;;;17.17;60.34
53960;BME280;39866;48.638;-2.020;2023-03-23T06:37:05;100159.91;;;17.19;60.46
53960;BME280;39866;48.638;-2.020;2023-03-23T06:39:31;100163.63;;;17.17;60.12
53960;BME280;39866;48.638;-2.020;2023-03-23T06:41:57;100169.44;;;17.11;60.49
53960;BME280;39866;48.638;-2.020;2023-03-23T06:44:24;100168.53;;;17.10;60.61
53960;BME280;39866;48.638;-2.020;2023-03-23T06:46:50;100171.69;;;17.17;60.31
53960;BME280;39866;48.638;-2.020;2023-03-23T06:49:15;100172.97;;;17.11;60.28
53960;BME280;39866;48.638;-2.020;2023-03-23T06:51:41;100176.81;;;17.07;60.54
53960;BME280;39866;48.638;-2.020;2023-03-23T06:54:06;100163.75;;;17.01;60.80
53960;BME280;39866;48.638;-2.020;2023-03-23T06:56:32;100163.63;;;17.17;60.49
53960;BME280;39866;48.638;-2.020;2023-03-23T06:58:57;100160.47;;;17.10;60.37
53960;BME280;39866;48.638;-2.020;2023-03-23T07:01:23;100162.66;;;17.18;60.46
53960;BME280;39866;48.638;-2.020;2023-03-23T07:03:48;100158.38;;;17.15;60.43
53960;BME280;39866;48.638;-2.020;2023-03-23T07:06:14;100162.59;;;17.05;60.55
53960;BME280;39866;48.638;-2.020;2023-03-23T07:08:41;100170.06;;;17.14;60.52
53960;BME280;39866;48.638;-2.020;2023-03-23T07:11:07;100169.81;;;17.04;60.43
53960;BME280;39866;48.638;-2.020;2023-03-23T07:13:33;100167.22;;;17.03;60.57
53960;BME280;39866;48.638;-2.020;2023-03-23T07:15:58;100158.75;;;17.09;60.08
53960;BME280;39866;48.638;-2.020;2023-03-23T07:18:24;100158.97;;;16.92;60.41
53960;BME280;39866;48.638;-2.020;2023-03-23T07:20:51;100161.06;;;17.01;60.53
53960;BME280;39866;48.638;-2.020;2023-03-23T07:23:17;100162.47;;;17.21;60.09
53960;BME280;39866;48.638;-2.020;2023-03-23T07:25:43;100153.06;;;17.14;59.83
53960;BME280;39866;48.638;-2.020;2023-03-23T07:28:10;100164.97;;;17.24;59.44
53960;BME280;39866;48.638;-2.020;2023-03-23T07:30:35;100150.44;;;17.26;59.54
53960;BME280;39866;48.638;-2.020;2023-03-23T07:33:05;100161.47;;;17.36;59.50
53960;BME280;39866;48.638;-2.020;2023-03-23T07:35:31;100165.38;;;17.45;59.29
53960;BME280;39866;48.638;-2.020;2023-03-23T07:37:56;100167.72;;;17.37;59.22
53960;BME280;39866;48.638;-2.020;2023-03-23T07:40:22;100174.81;;;17.38;58.96
53960;BME280;39866;48.638;-2.020;2023-03-23T07:42:55;100178.16;;;17.41;59.27
53960;BME280;39866;48.638;-2.020;2023-03-23T07:45:21;100166.19;;;17.32;58.87
53960;BME280;39866;48.638;-2.020;2023-03-23T07:47:47;100166.75;;;17.38;58.51
53960;BME280;39866;48.638;-2.020;2023-03-23T07:50:13;100164.47;;;17.31;58.58
53960;BME280;39866;48.638;-2.020;2023-03-23T07:52:39;100172.66;;;17.43;58.58
53960;BME280;39866;48.638;-2.020;2023-03-23T07:55:08;100185.63;;;17.50;58.53
53960;BME280;39866;48.638;-2.020;2023-03-23T07:57:34;100174.84;;;17.50;58.41
53960;BME280;39866;48.638;-2.020;2023-03-23T07:59:59;100177.47;;;17.52;58.76
53960;BME280;39866;48.638;-2.020;2023-03-23T08:02:25;100187.88;;;17.44;58.90
53960;BME280;39866;48.638;-2.020;2023-03-23T08:04:52;100193.16;;;17.45;59.13
53960;BME280;39866;48.638;-2.020;2023-03-23T08:07:19;100190.41;;;17.60;58.87
53960;BME280;39866;48.638;-2.020;2023-03-23T08:09:45;100171.59;;;17.60;58.85
53960;BME280;39866;48.638;-2.020;2023-03-23T08:12:10;100188.13;;;17.53;59.24
53960;BME280;39866;48.638;-2.020;2023-03-23T08:14:36;100183.56;;;17.68;58.78
53960;BME280;39866;48.638;-2.020;2023-03-23T08:17:01;100180.63;;;17.71;58.81
53960;BME280;39866;48.638;-2.020;2023-03-23T08:19:27;100180.00;;;17.68;58.99
53960;BME280;39866;48.638;-2.020;2023-03-23T08:21:52;100178.38;;;17.65;59.16
53960;BME280;39866;48.638;-2.020;2023-03-23T08:24:18;100180.75;;;17.70;58.80
53960;BME280;39866;48.638;-2.020;2023-03-23T08:26:44;100178.16;;;17.68;58.71
53960;BME280;39866;48.638;-2.020;2023-03-23T08:29:10;100177.09;;;17.71;58.66
53960;BME280;39866;48.638;-2.020;2023-03-23T08:31:35;100177.19;;;17.69;58.53
53960;BME280;39866;48.638;-2.020;2023-03-23T08:34:03;100175.03;;;17.89;58.21
53960;BME280;39866;48.638;-2.020;2023-03-23T08:36:33;100178.78;;;17.86;58.20
53960;BME280;39866;48.638;-2.020;2023-03-23T08:38:59;100173.72;;;17.67;58.53
53960;BME280;39866;48.638;-2.020;2023-03-23T08:41:25;100176.50;;;17.53;58.72
53960;BME280;39866;48.638;-2.020;2023-03-23T08:43:51;100175.00;;;17.76;58.44
53960;BME280;39866;48.638;-2.020;2023-03-23T08:46:18;100181.59;;;17.85;58.27
53960;BME280;39866;48.638;-2.020;2023-03-23T08:48:44;100172.88;;;17.94;58.27
53960;BME280;39866;48.638;-2.020;2023-03-23T08:51:10;100179.88;;;17.69;58.77
53960;BME280;39866;48.638;-2.020;2023-03-23T08:53:36;100157.75;;;17.78;58.26
53960;BME280;39866;48.638;-2.020;2023-03-23T08:56:06;100150.34;;;17.82;57.50
53960;BME280;39866;48.638;-2.020;2023-03-23T08:58:34;100178.94;;;17.97;57.38
53960;BME280;39866;48.638;-2.020;2023-03-23T09:01:00;100173.09;;;18.03;57.43
53960;BME280;39866;48.638;-2.020;2023-03-23T09:03:26;100185.06;;;17.99;57.15
53960;BME280;39866;48.638;-2.020;2023-03-23T09:05:52;100183.44;;;17.84;57.60
53960;BME280;39866;48.638;-2.020;2023-03-23T09:08:18;100145.63;;;17.86;56.71
53960;BME280;39866;48.638;-2.020;2023-03-23T09:10:43;100165.53;;;17.96;56.68
53960;BME280;39866;48.638;-2.020;2023-03-23T09:13:09;100159.75;;;18.15;56.19
53960;BME280;39866;48.638;-2.020;2023-03-23T09:15:34;100161.81;;;18.11;55.66
53960;BME280;39866;48.638;-2.020;2023-03-23T09:18:00;100168.16;;;18.10;55.86
53960;BME280;39866;48.638;-2.020;2023-03-23T09:20:27;100167.97;;;18.26;55.52
53960;BME280;39866;48.638;-2.020;2023-03-23T09:22:54;100159.75;;;18.15;55.20
53960;BME280;39866;48.638;-2.020;2023-03-23T09:25:23;100159.94;;;17.99;55.23
53960;BME280;39866;48.638;-2.020;2023-03-23T09:27:55;100171.19;;;18.18;55.06
53960;BME280;39866;48.638;-2.020;2023-03-23T09:30:24;100181.13;;;18.30;54.75
53960;BME280;39866;48.638;-2.020;2023-03-23T09:32:50;100172.38;;;18.14;55.14
53960;BME280;39866;48.638;-2.020;2023-03-23T09:35:16;100179.16;;;18.07;54.74
53960;BME280;39866;48.638;-2.020;2023-03-23T09:37:43;100182.81;;;18.06;54.83
53960;BME280;39866;48.638;-2.020;2023-03-23T09:43:13;100142.94;;;18.11;55.25
53960;BME280;39866;48.638;-2.020;2023-03-23T09:53:48;100149.72;;;18.04;54.06
53960;BME280;39866;48.638;-2.020;2023-03-23T09:56:15;100153.06;;;17.95;53.75
53960;BME280;39866;48.638;-2.020;2023-03-23T09:58:50;100150.38;;;18.20;53.57
53960;BME280;39866;48.638;-2.020;2023-03-23T10:01:25;100165.53;;;17.96;53.91
53960;BME280;39866;48.638;-2.020;2023-03-23T10:03:58;100150.28;;;18.22;53.80
53960;BME280;39866;48.638;-2.020;2023-03-23T10:06:26;100168.63;;;18.17;53.84
53960;BME280;39866;48.638;-2.020;2023-03-23T10:08:54;100169.66;;;17.89;53.92
53960;BME280;39866;48.638;-2.020;2023-03-23T10:11:36;100167.84;;;18.02;53.79
53960;BME280;39866;48.638;-2.020;2023-03-23T10:17:11;100189.19;;;18.30;54.01
53960;BME280;39866;48.638;-2.020;2023-03-23T10:22:09;100210.28;;;18.11;54.27
53960;BME280;39866;48.638;-2.020;2023-03-23T10:24:57;100225.06;;;18.18;54.20
53960;BME280;39866;48.638;-2.020;2023-03-23T10:27:32;100204.06;;;18.23;54.64
53960;BME280;39866;48.638;-2.020;2023-03-23T10:30:20;100189.28;;;18.16;54.44
53960;BME280;39866;48.638;-2.020;2023-03-23T10:32:55;100193.75;;;18.43;54.00
53960;BME280;39866;48.638;-2.020;2023-03-23T10:35:40;100188.41;;;18.03;53.62
53960;BME280;39866;48.638;-2.020;2023-03-23T10:38:17;100193.72;;;18.17;53.40
53960;BME280;39866;48.638;-2.020;2023-03-23T10:41:11;100210.41;;;18.10;53.41
53960;BME280;39866;48.638;-2.020;2023-03-23T10:43:38;100205.91;;;18.36;52.60
53960;BME280;39866;48.638;-2.020;2023-03-23T10:49:15;100182.50;;;18.11;52.18
53960;BME280;39866;48.638;-2.020;2023-03-23T10:51:47;100176.38;;;18.34;52.04
53960;BME280;39866;48.638;-2.020;2023-03-23T10:54:32;100182.94;;;18.55;51.78
53960;BME280;39866;48.638;-2.020;2023-03-23T10:56:58;100169.25;;;18.59;51.91
53960;BME280;39866;48.638;-2.020;2023-03-23T10:59:29;100173.16;;;18.42;51.90
53960;BME280;39866;48.638;-2.020;2023-03-23T11:01:57;100190.28;;;18.41;51.94
53960;BME280;39866;48.638;-2.020;2023-03-23T11:04:24;100183.59;;;18.59;52.10
53960;BME280;39866;48.638;-2.020;2023-03-23T11:06:53;100197.41;;;18.80;52.08
53960;BME280;39866;48.638;-2.020;2023-03-23T11:09:33;100171.19;;;18.56;52.31
53960;BME280;39866;48.638;-2.020;2023-03-23T11:11:59;100174.41;;;18.49;52.76
53960;BME280;39866;48.638;-2.020;2023-03-23T11:14:27;100168.50;;;18.56;52.86
53960;BME280;39866;48.638;-2.020;2023-03-23T11:16:55;100154.59;;;18.50;52.64
53960;BME280;39866;48.638;-2.020;2023-03-23T11:19:26;100135.06;;;18.59;53.49
53960;BME280;39866;48.638;-2.020;2023-03-23T11:22:28;100134.09;;;18.60;53.44
53960;BME280;39866;48.638;-2.020;2023-03-23T11:24:56;100147.47;;;18.23;54.73
53960;BME280;39866;48.638;-2.020;2023-03-23T11:27:24;100162.47;;;18.40;54.72
53960;BME280;39866;48.638;-2.020;2023-03-23T11:29:54;100152.34;;;18.44;54.92
53960;BME280;39866;48.638;-2.020;2023-03-23T11:32:26;100163.00;;;18.32;55.20
53960;BME280;39866;48.638;-2.020;2023-03-23T11:35:01;100163.22;;;18.68;54.78
53960;BME280;39866;48.638;-2.020;2023-03-23T11:40:15;100131.31;;;18.36;56.58
53960;BME280;39866;48.638;-2.020;2023-03-23T11:42:48;100138.44;;;18.37;57.04
53960;BME280;39866;48.638;-2.020;2023-03-23T11:45:24;100131.53;;;18.59;56.82
53960;BME280;39866;48.638;-2.020;2023-03-23T11:51:00;100119.63;;;18.61;56.94
53960;BME280;39866;48.638;-2.020;2023-03-23T11:56:23;100121.81;;;18.56;56.78
53960;BME280;39866;48.638;-2.020;2023-03-23T11:58:51;100115.13;;;18.74;56.09
53960;BME280;39866;48.638;-2.020;2023-03-23T12:07:02;100083.84;;;18.59;55.60
53960;BME280;39866;48.638;-2.020;2023-03-23T12:09:46;100094.31;;;18.51;56.18
53960;BME280;39866;48.638;-2.020;2023-03-23T12:12:33;100080.47;;;18.68;55.77
53960;BME280;39866;48.638;-2.020;2023-03-23T12:15:27;100096.66;;;18.68;56.52
53960;BME280;39866;48.638;-2.020;2023-03-23T12:21:05;100088.53;;;18.31;57.28
53960;BME280;39866;48.638;-2.020;2023-03-23T12:24:04;100100.69;;;18.50;57.23
53960;BME280;39866;48.638;-2.020;2023-03-23T12:26:50;100100.69;;;18.50;58.38
53960;BME280;39866;48.638;-2.020;2023-03-23T12:29:27;100101.16;;;18.18;59.35
53960;BME280;39866;48.638;-2.020;2023-03-23T12:37:10;100081.84;;;18.50;59.35
53960;BME280;39866;48.638;-2.020;2023-03-23T12:45:43;100076.81;;;18.69;58.67
53960;BME280;39866;48.638;-2.020;2023-03-23T12:48:29;100065.28;;;18.80;58.26
53960;BME280;39866;48.638;-2.020;2023-03-23T12:51:21;100073.78;;;18.87;57.56
53960;BME280;39866;48.638;-2.020;2023-03-23T12:56:28;100053.22;;;18.73;57.23
53960;BME280;39866;48.638;-2.020;2023-03-23T13:01:45;100053.72;;;18.91;55.83
53960;BME280;39866;48.638;-2.020;2023-03-23T13:04:35;100060.84;;;19.16;54.55
53960;BME280;39866;48.638;-2.020;2023-03-23T13:07:06;100023.56;;;19.21;53.92
53960;BME280;39866;48.638;-2.020;2023-03-23T13:09:48;100045.63;;;18.91;53.60
53960;BME280;39866;48.638;-2.020;2023-03-23T13:12:16;100041.19;;;19.14;51.95
53960;BME280;39866;48.638;-2.020;2023-03-23T13:25:24;100033.34;;;19.46;50.51
53960;BME280;39866;48.638;-2.020;2023-03-23T13:27:59;100044.03;;;19.47;50.91
53960;BME280;39866;48.638;-2.020;2023-03-23T13:30:25;100031.22;;;19.38;51.77
53960;BME280;39866;48.638;-2.020;2023-03-23T13:33:02;100018.09;;;18.98;52.37
53960;BME280;39866;48.638;-2.020;2023-03-23T13:35:34;100022.16;;;19.04;51.19
53960;BME280;39866;48.638;-2.020;2023-03-23T13:37:59;100033.38;;;18.98;51.73
53960;BME280;39866;48.638;-2.020;2023-03-23T13:40:27;99997.59;;;18.96;51.93
53960;BME280;39866;48.638;-2.020;2023-03-23T13:42:55;100007.75;;;18.92;50.36
53960;BME280;39866;48.638;-2.020;2023-03-23T13:45:24;100011.84;;;19.09;49.68
53960;BME280;39866;48.638;-2.020;2023-03-23T13:50:57;100005.53;;;18.73;48.10
53960;BME280;39866;48.638;-2.020;2023-03-23T13:53:27;100011.91;;;19.20;48.37
53960;BME280;39866;48.638;-2.020;2023-03-23T13:56:05;99991.75;;;18.78;48.56
53960;BME280;39866;48.638;-2.020;2023-03-23T13:58:30;99970.28;;;18.76;47.94
53960;BME280;39866;48.638;-2.020;2023-03-23T14:03:39;99977.06;;;18.69;48.56
53960;BME280;39866;48.638;-2.020;2023-03-23T14:06:10;99981.84;;;18.66;50.48
53960;BME280;39866;48.638;-2.020;2023-03-23T14:08:40;99974.94;;;18.74;51.29
53960;BME280;39866;48.638;-2.020;2023-03-23T14:16:22;99967.13;;;18.83;49.66
53960;BME280;39866;48.638;-2.020;2023-03-23T14:18:54;99955.75;;;18.66;49.39
53960;BME280;39866;48.638;-2.020;2023-03-23T14:21:38;99982.19;;;18.48;50.75
53960;BME280;39866;48.638;-2.020;2023-03-23T14:24:29;99974.81;;;18.63;51.47
53960;BME280;39866;48.638;-2.020;2023-03-23T14:27:15;99940.66;;;18.88;50.79
53960;BME280;39866;48.638;-2.020;2023-03-23T14:29:42;99939.19;;;18.47;51.13